createdAt,value
2023-02-24T04:21:57.094Z,82.57
2023-02-24T04:22:57.043Z,82.57
2023-02-24T04:23:57.013Z,82.47
2023-02-24T04:24:57.010Z,82.68
2023-02-24T04:25:57.009Z,82.17
2023-02-24T04:26:56.979Z,82.57
2023-02-24T04:27:56.966Z,82.68
2023-02-24T04:28:56.959Z,82.68
2023-02-24T04:29:56.960Z,82.78
2023-02-24T04:30:57.020Z,82.89
2023-02-24T04:31:57.155Z,82.68
2023-02-24T04:33:01.941Z,82.89
2023-02-24T04:33:56.904Z,82.89
2023-02-24T04:34:56.897Z,82.78
2023-02-24T04:35:56.885Z,82.89
2023-02-24T04:36:56.869Z,82.89
2023-02-24T04:37:56.881Z,82.89
2023-02-24T04:38:56.849Z,82.78
2023-02-24T04:39:56.853Z,82.89
2023-02-24T04:40:56.823Z,82.78
2023-02-24T04:41:56.811Z,82.57
2023-02-24T04:42:56.799Z,82.68
2023-02-24T04:44:01.831Z,82.47
2023-02-24T04:44:56.777Z,82.78
2023-02-24T04:45:56.778Z,82.68
2023-02-24T04:46:56.764Z,82.89
2023-02-24T04:47:56.744Z,82.78
2023-02-24T04:48:56.731Z,82.78
2023-02-24T04:49:56.734Z,82.47
2023-02-24T04:50:56.722Z,82.78
2023-02-24T04:51:56.700Z,82.89
2023-02-24T04:52:56.690Z,82.89
2023-02-24T04:53:56.699Z,82.68
2023-02-24T04:55:01.695Z,82.68
2023-02-24T04:55:56.664Z,82.89
2023-02-24T04:56:59.157Z,82.68
2023-02-24T04:57:56.637Z,82.78
2023-02-24T04:58:56.623Z,82.57
2023-02-24T04:59:56.614Z,82.17
2023-02-24T05:00:56.606Z,82.06
2023-02-24T05:01:56.593Z,82.17
2023-02-24T05:02:56.611Z,82.06
2023-02-24T05:03:56.648Z,81.86
2023-02-24T05:04:56.607Z,81.55
2023-02-24T05:06:01.576Z,81.76
2023-02-24T05:06:56.535Z,82.17
2023-02-24T05:07:56.520Z,82.27
2023-02-24T05:08:56.514Z,82.17
2023-02-24T05:09:56.524Z,81.96
2023-02-24T05:10:56.502Z,82.06
2023-02-24T05:11:56.483Z,82.17
2023-02-24T05:12:56.471Z,82.37
2023-02-24T05:13:56.457Z,82.37
2023-02-24T05:14:56.449Z,82.06
2023-02-24T05:15:56.513Z,82.17
2023-02-24T05:17:01.458Z,81.65
2023-02-24T05:17:56.417Z,81.86
2023-02-24T05:18:56.403Z,82.17
2023-02-24T05:19:56.409Z,82.17
2023-02-24T05:20:56.389Z,82.37
2023-02-24T05:21:56.391Z,82.20
2023-02-24T05:22:56.357Z,82.27
2023-02-24T05:23:56.353Z,82.27
2023-02-24T05:24:56.337Z,82.17
2023-02-24T05:25:56.488Z,82.37
2023-02-24T05:26:56.328Z,82.37
2023-02-24T05:28:01.334Z,82.37
2023-02-24T05:28:56.342Z,82.37
2023-02-24T05:29:56.280Z,82.68
2023-02-24T05:30:56.551Z,82.57
2023-02-24T05:31:56.405Z,82.57
2023-02-24T05:32:56.249Z,82.51
2023-02-24T05:33:56.235Z,82.31
2023-02-24T05:34:56.228Z,82.92
2023-02-24T05:35:56.222Z,82.68
2023-02-24T05:36:56.211Z,82.57
2023-02-24T05:37:56.194Z,83.64
2023-02-24T05:39:01.216Z,83.40
2023-02-24T05:39:56.175Z,83.13
2023-02-24T05:40:56.153Z,83.54
2023-02-24T05:41:56.175Z,82.41
2023-02-24T05:42:56.131Z,82.62
2023-02-24T05:43:56.134Z,83.64
2023-02-24T05:44:56.109Z,82.62
2023-02-24T05:45:56.108Z,82.92
2023-02-24T05:46:56.184Z,82.31
2023-02-24T05:47:56.078Z,82.31
2023-02-24T05:48:56.069Z,82.31
2023-02-24T05:50:01.099Z,82.31
2023-02-24T05:50:56.042Z,82.82
2023-02-24T05:51:56.064Z,82.92
2023-02-24T05:52:56.046Z,82.71
2023-02-24T05:53:56.034Z,82.71
2023-02-24T05:54:56.006Z,82.51
2023-02-24T05:55:55.988Z,82.41
2023-02-24T05:56:55.993Z,83.64
2023-02-24T05:57:55.998Z,82.51
2023-02-24T05:58:55.954Z,82.51
2023-02-24T05:59:56.042Z,82.47
2023-02-24T06:01:00.955Z,83.64
2023-02-24T06:01:55.950Z,82.41
2023-02-24T06:02:55.922Z,82.51
2023-02-24T06:03:55.905Z,82.51
2023-02-24T06:04:55.942Z,82.57
2023-02-24T06:05:55.887Z,82.31
2023-02-24T06:06:55.882Z,82.37
2023-02-24T06:07:55.868Z,82.62
2023-02-24T06:08:55.842Z,82.71
2023-02-24T06:09:55.838Z,82.51
2023-02-24T06:10:55.821Z,82.31
2023-02-24T06:12:00.896Z,82.68
2023-02-24T06:12:55.800Z,82.37
2023-02-24T06:13:55.813Z,82.37
2023-02-24T06:14:55.845Z,82.47
2023-02-24T06:15:55.795Z,82.17
2023-02-24T06:16:55.767Z,82.62
2023-02-24T06:17:55.744Z,82.92
2023-02-24T06:18:55.744Z,82.82
2023-02-24T06:19:55.762Z,82.51
2023-02-24T06:20:55.713Z,83.44
2023-02-24T06:21:55.722Z,83.09
2023-02-24T06:23:00.729Z,83.03
2023-02-24T06:23:55.681Z,83.23
2023-02-24T06:24:55.668Z,83.13
2023-02-24T06:25:55.666Z,83.85
2023-02-24T06:26:55.646Z,82.57
2023-02-24T06:27:55.648Z,82.89
2023-02-24T06:28:55.628Z,82.89
2023-02-24T06:29:55.643Z,82.57
2023-02-24T06:30:55.646Z,82.68
2023-02-24T06:31:55.687Z,82.57
2023-02-24T06:32:55.624Z,82.57
2023-02-24T06:34:00.605Z,82.17
2023-02-24T06:34:55.571Z,82.27
2023-02-24T06:35:55.551Z,81.86
2023-02-24T06:36:55.536Z,81.76
2023-02-24T06:37:55.541Z,80.93
2023-02-24T06:38:55.531Z,81.04
2023-02-24T06:39:55.519Z,81.14
2023-02-24T06:40:55.657Z,81.34
2023-02-24T06:41:55.485Z,81.34
2023-02-24T06:42:55.488Z,81.24
2023-02-24T06:43:55.458Z,81.24
2023-02-24T06:45:00.502Z,81.04
2023-02-24T06:45:55.485Z,80.93
2023-02-24T06:46:55.427Z,80.83
2023-02-24T06:47:55.424Z,80.73
2023-02-24T06:48:55.433Z,81.76
2023-02-24T06:49:55.395Z,81.65
2023-02-24T06:50:55.390Z,81.86
2023-02-24T06:51:55.371Z,81.76
2023-02-24T06:52:55.370Z,81.76
2023-02-24T06:53:55.347Z,81.76
2023-02-24T06:54:55.346Z,81.76
2023-02-24T06:56:00.348Z,81.45
2023-02-24T06:56:55.314Z,81.65
2023-02-24T06:57:55.316Z,81.55
2023-02-24T06:58:55.296Z,81.96
2023-02-24T06:59:55.288Z,81.96
2023-02-24T07:00:55.343Z,81.65
2023-02-24T07:01:55.263Z,81.86
2023-02-24T07:02:55.262Z,81.76
2023-02-24T07:03:55.279Z,81.76
2023-02-24T07:04:55.238Z,81.86
2023-02-24T07:05:55.218Z,82.27
2023-02-24T07:07:00.229Z,82.17
2023-02-24T07:07:55.204Z,82.17
2023-02-24T07:08:55.193Z,81.96
2023-02-24T07:09:55.176Z,81.86
2023-02-24T07:10:55.164Z,81.76
2023-02-24T07:11:55.150Z,81.86
2023-02-24T07:12:55.240Z,80.83
2023-02-24T07:13:55.121Z,81.04
2023-02-24T07:14:55.118Z,81.14
2023-02-24T07:15:55.105Z,81.34
2023-02-24T07:16:55.517Z,81.14
2023-02-24T07:18:00.135Z,81.24
2023-02-24T07:18:55.069Z,81.34
2023-02-24T07:19:55.084Z,81.45
2023-02-24T07:20:55.049Z,81.20
2023-02-24T07:21:55.038Z,81.04
2023-02-24T07:22:55.037Z,81.14
2023-02-24T07:23:56.995Z,80.83
2023-02-24T07:24:55.006Z,80.83
2023-02-24T07:25:54.991Z,80.38
2023-02-24T07:26:54.982Z,80.58
2023-02-24T07:27:54.996Z,80.58
2023-02-24T07:28:59.983Z,79.56
2023-02-24T07:29:54.957Z,79.66
2023-02-24T07:30:55.050Z,80.58
2023-02-24T07:31:55.175Z,80.07
2023-02-24T07:32:54.937Z,80.07
2023-02-24T07:33:54.917Z,80.69
2023-02-24T07:34:54.893Z,79.80
2023-02-24T07:35:54.880Z,80.58
2023-02-24T07:36:54.885Z,80.38
2023-02-24T07:37:54.859Z,80.69
2023-02-24T07:38:54.887Z,80.38
2023-02-24T07:39:59.862Z,80.49
2023-02-24T07:40:54.870Z,80.58
2023-02-24T07:41:54.815Z,80.58
2023-02-24T07:42:54.803Z,80.58
2023-02-24T07:43:54.809Z,80.38
2023-02-24T07:44:54.821Z,80.49
2023-02-24T07:45:54.788Z,80.28
2023-02-24T07:46:54.757Z,80.28
2023-02-24T07:47:54.743Z,79.97
2023-02-24T07:48:54.775Z,80.07
2023-02-24T07:49:54.720Z,80.28
2023-02-24T07:50:59.735Z,80.45
2023-02-24T07:51:54.735Z,80.07
2023-02-24T07:52:54.690Z,80.28
2023-02-24T07:53:54.676Z,80.38
2023-02-24T07:54:54.682Z,80.07
2023-02-24T07:55:54.652Z,80.14
2023-02-24T07:56:54.652Z,80.45
2023-02-24T07:57:54.638Z,80.38
2023-02-24T07:58:54.624Z,80.18
2023-02-24T07:59:54.624Z,80.28
2023-02-24T08:00:54.632Z,80.69
2023-02-24T08:01:59.609Z,80.65
2023-02-24T08:02:54.660Z,80.49
2023-02-24T08:03:54.568Z,80.45
2023-02-24T08:04:54.596Z,80.35
2023-02-24T08:05:54.643Z,80.24
2023-02-24T08:06:54.534Z,79.83
2023-02-24T08:07:54.522Z,80.14
2023-02-24T08:08:54.513Z,79.93
2023-02-24T08:09:54.521Z,79.52
2023-02-24T08:10:54.517Z,79.83
2023-02-24T08:11:54.478Z,79.52
2023-02-24T08:12:59.489Z,79.93
2023-02-24T08:13:54.457Z,79.63
2023-02-24T08:14:54.461Z,79.52
2023-02-24T08:15:54.474Z,79.63
2023-02-24T08:16:54.425Z,79.52
2023-02-24T08:17:56.215Z,79.73
2023-02-24T08:18:54.408Z,79.49
2023-02-24T08:19:54.400Z,79.83
2023-02-24T08:20:54.404Z,78.87
2023-02-24T08:21:54.382Z,78.91
2023-02-24T08:22:54.402Z,79.01
2023-02-24T08:23:59.369Z,78.67
2023-02-24T08:24:54.363Z,78.67
2023-02-24T08:25:54.351Z,79.01
2023-02-24T08:26:54.314Z,78.81
2023-02-24T08:28:06.334Z,79.08
2023-02-24T08:28:55.289Z,79.28
2023-02-24T08:29:54.283Z,78.81
2023-02-24T08:30:54.400Z,78.77
2023-02-24T08:31:54.376Z,78.77
2023-02-24T08:32:54.294Z,78.77
2023-02-24T08:33:54.231Z,79.38
2023-02-24T08:34:59.264Z,79.38
2023-02-24T08:35:54.210Z,79.08
2023-02-24T08:36:54.219Z,78.53
2023-02-24T08:37:54.188Z,78.22
2023-02-24T08:38:54.190Z,78.16
2023-02-24T08:39:54.174Z,78.74
2023-02-24T08:40:54.174Z,78.74
2023-02-24T08:41:54.159Z,78.32
2023-02-24T08:42:54.134Z,77.71
2023-02-24T08:43:54.130Z,78.22
2023-02-24T08:44:54.147Z,77.98
2023-02-24T08:45:59.133Z,77.71
2023-02-24T08:46:54.184Z,77.98
2023-02-24T08:47:54.092Z,77.98
2023-02-24T08:48:54.081Z,77.87
2023-02-24T08:49:54.065Z,77.47
2023-02-24T08:50:54.057Z,77.36
2023-02-24T08:51:54.048Z,77.26
2023-02-24T08:52:54.071Z,77.16
2023-02-24T08:53:54.021Z,77.36
2023-02-24T08:54:54.006Z,77.26
2023-02-24T08:55:54.010Z,77.26
2023-02-24T08:56:59.009Z,77.16
2023-02-24T08:57:53.997Z,76.95
2023-02-24T08:58:53.966Z,77.57
2023-02-24T08:59:53.950Z,77.36
2023-02-24T09:00:53.991Z,76.40
2023-02-24T09:02:04.400Z,76.81
2023-02-24T09:02:54.918Z,75.99
2023-02-24T09:03:53.917Z,76.75
2023-02-24T09:04:53.995Z,77.47
2023-02-24T09:05:53.886Z,76.54
2023-02-24T09:06:57.816Z,77.57
2023-02-24T09:07:59.912Z,77.26
2023-02-24T09:08:53.852Z,76.65
2023-02-24T09:09:53.871Z,76.85
2023-02-24T09:10:53.835Z,77.36
2023-02-24T09:11:53.834Z,76.95
2023-02-24T09:12:53.826Z,76.92
2023-02-24T09:13:53.804Z,76.20
2023-02-24T09:14:53.785Z,76.61
2023-02-24T09:15:53.874Z,76.51
2023-02-24T09:16:53.805Z,76.31
2023-02-24T09:17:53.756Z,76.51
2023-02-24T09:18:58.767Z,76.88
2023-02-24T09:19:53.733Z,76.37
2023-02-24T09:20:53.721Z,75.86
2023-02-24T09:21:53.741Z,75.31
2023-02-24T09:22:53.698Z,75.01
2023-02-24T09:23:53.712Z,74.69
2023-02-24T09:24:53.677Z,75.14
2023-02-24T09:25:53.658Z,75.55
2023-02-24T09:26:53.685Z,75.04
2023-02-24T09:27:53.635Z,75.04
2023-02-24T09:28:53.677Z,74.49
2023-02-24T09:29:58.637Z,74.19
2023-02-24T09:30:53.990Z,74.49
2023-02-24T09:31:53.669Z,74.26
2023-02-24T09:32:53.765Z,73.03
2023-02-24T09:33:53.584Z,73.61
2023-02-24T09:34:53.573Z,72.92
2023-02-24T09:35:53.554Z,73.23
2023-02-24T09:36:53.550Z,72.92
2023-02-24T09:37:53.525Z,72.92
2023-02-24T09:38:53.519Z,72.72
2023-02-24T09:39:53.540Z,72.52
2023-02-24T09:41:01.024Z,73.23
2023-02-24T09:41:54.146Z,72.92
2023-02-24T09:42:53.506Z,72.62
2023-02-24T09:43:53.462Z,72.92
2023-02-24T09:44:53.452Z,72.72
2023-02-24T09:45:53.752Z,72.99
2023-02-24T09:46:53.736Z,71.97
2023-02-24T09:47:53.417Z,72.45
2023-02-24T09:48:53.402Z,70.78
2023-02-24T09:49:53.400Z,71.26
2023-02-24T09:51:03.389Z,69.79
2023-02-24T09:51:59.400Z,68.84
2023-02-24T09:52:55.667Z,68.23
2023-02-24T09:53:54.346Z,68.33
2023-02-24T09:54:53.342Z,68.37
2023-02-24T09:55:53.351Z,69.45
2023-02-24T09:56:53.317Z,70.68
2023-02-24T09:57:53.321Z,70.64
2023-02-24T09:58:53.448Z,72.52
2023-02-24T09:59:53.285Z,72.92
2023-02-24T10:00:53.323Z,72.52
2023-02-24T10:01:53.350Z,72.75
2023-02-24T10:02:58.280Z,72.82
2023-02-24T10:03:53.242Z,72.72
2023-02-24T10:04:53.225Z,72.75
2023-02-24T10:05:53.213Z,72.75
2023-02-24T10:06:53.207Z,73.74
2023-02-24T10:07:53.266Z,73.03
2023-02-24T10:08:53.184Z,72.31
2023-02-24T10:09:53.167Z,71.29
2023-02-24T10:10:53.163Z,71.25
2023-02-24T10:11:53.176Z,71.25
2023-02-24T10:12:53.163Z,70.71
2023-02-24T10:14:03.517Z,70.84
2023-02-24T10:15:00.399Z,70.81
2023-02-24T10:15:57.492Z,70.71
2023-02-24T10:16:53.176Z,70.81
2023-02-24T10:17:53.108Z,70.10
2023-02-24T10:18:53.076Z,70.61
2023-02-24T10:19:53.062Z,70.30
2023-02-24T10:20:53.095Z,70.92
2023-02-24T10:21:53.032Z,70.71
2023-02-24T10:22:53.037Z,69.59
2023-02-24T10:23:54.931Z,70.13
2023-02-24T10:24:58.030Z,69.89
2023-02-24T10:25:53.001Z,70.13
2023-02-24T10:27:00.723Z,70.23
2023-02-24T10:27:54.008Z,70.43
2023-02-24T10:28:52.970Z,70.34
2023-02-24T10:29:52.975Z,70.88
2023-02-24T10:30:53.001Z,71.49
2023-02-24T10:31:53.210Z,71.39
2023-02-24T10:32:53.105Z,71.08
2023-02-24T10:33:52.911Z,71.36
2023-02-24T10:34:52.891Z,70.95
2023-02-24T10:35:57.904Z,70.81
2023-02-24T10:36:52.871Z,70.51
2023-02-24T10:37:52.864Z,69.52
2023-02-24T10:38:52.859Z,69.62
2023-02-24T10:39:52.848Z,70.26
2023-02-24T10:40:52.824Z,70.67
2023-02-24T10:41:52.928Z,70.98
2023-02-24T10:42:52.800Z,70.98
2023-02-24T10:43:52.935Z,70.64
2023-02-24T10:45:01.483Z,69.52
2023-02-24T10:45:53.789Z,68.90
2023-02-24T10:46:57.808Z,69.11
2023-02-24T10:47:52.749Z,68.90
2023-02-24T10:48:52.749Z,69.82
2023-02-24T10:49:52.723Z,69.96
2023-02-24T10:50:56.508Z,70.78
2023-02-24T10:51:52.698Z,71.12
2023-02-24T10:52:52.692Z,70.98
2023-02-24T10:53:52.694Z,70.78
2023-02-24T10:54:52.678Z,70.67
2023-02-24T10:55:52.655Z,70.37
2023-02-24T10:56:52.652Z,70.47
2023-02-24T10:57:59.382Z,70.23
2023-02-24T10:58:52.647Z,69.82
2023-02-24T10:59:52.836Z,69.62
2023-02-24T11:00:52.626Z,69.82
2023-02-24T11:01:52.720Z,68.66
2023-02-24T11:02:52.668Z,67.82
2023-02-24T11:03:52.602Z,68.12
2023-02-24T11:04:58.423Z,67.27
2023-02-24T11:05:55.123Z,67.07
2023-02-24T11:06:53.426Z,66.42
2023-02-24T11:07:52.601Z,67.14
2023-02-24T11:08:58.061Z,66.83
2023-02-24T11:09:52.643Z,66.53
2023-02-24T11:10:52.520Z,65.58
2023-02-24T11:11:52.523Z,65.37
2023-02-24T11:13:00.870Z,65.68
2023-02-24T11:13:53.492Z,66.63
2023-02-24T11:14:52.507Z,65.71
2023-02-24T11:15:52.518Z,65.61
2023-02-24T11:16:52.620Z,66.97
2023-02-24T11:17:52.440Z,67.27
2023-02-24T11:18:52.460Z,67.07
2023-02-24T11:19:57.439Z,67.27
2023-02-24T11:20:52.429Z,67.38
2023-02-24T11:21:52.391Z,67.79
2023-02-24T11:22:52.401Z,68.30
2023-02-24T11:23:52.343Z,67.18
2023-02-24T11:24:52.383Z,67.30
2023-02-24T11:25:52.395Z,67.48
2023-02-24T11:26:52.310Z,67.30
2023-02-24T11:27:52.311Z,67.30
2023-02-24T11:28:52.330Z,67.30
2023-02-24T11:29:52.375Z,67.65
2023-02-24T11:30:57.439Z,67.75
2023-02-24T11:31:52.422Z,68.02
2023-02-24T11:32:52.378Z,67.51
2023-02-24T11:33:52.236Z,66.69
2023-02-24T11:34:52.275Z,67.07
2023-02-24T11:35:52.255Z,65.57
2023-02-24T11:36:52.202Z,64.96
2023-02-24T11:37:52.216Z,66.18
2023-02-24T11:38:52.228Z,65.91
2023-02-24T11:39:52.171Z,66.08
2023-02-24T11:40:52.220Z,66.90
2023-02-24T11:41:57.236Z,66.93
2023-02-24T11:42:52.177Z,66.83
2023-02-24T11:43:52.126Z,66.96
2023-02-24T11:44:52.137Z,67.34
2023-02-24T11:45:52.208Z,66.83
2023-02-24T11:46:52.123Z,67.34
2023-02-24T11:47:52.132Z,67.65
2023-02-24T11:48:52.099Z,67.21
2023-02-24T11:49:52.069Z,66.90
2023-02-24T11:50:52.111Z,66.90
2023-02-24T11:51:52.057Z,67.27
2023-02-24T11:52:57.064Z,66.69
2023-02-24T11:53:52.054Z,66.86
2023-02-24T11:54:52.027Z,67.21
2023-02-24T11:55:52.085Z,67.30
2023-02-24T11:56:52.005Z,66.93
2023-02-24T11:57:52.022Z,67.54
2023-02-24T11:58:51.979Z,67.03
2023-02-24T11:59:51.999Z,67.44
2023-02-24T12:00:52.046Z,67.00
2023-02-24T12:01:51.927Z,67.10
2023-02-24T12:02:52.020Z,67.30
2023-02-24T12:03:56.930Z,67.21
2023-02-24T12:04:51.897Z,67.30
2023-02-24T12:05:51.969Z,66.56
2023-02-24T12:06:51.923Z,67.07
2023-02-24T12:07:51.858Z,66.86
2023-02-24T12:08:51.852Z,66.56
2023-02-24T12:09:51.873Z,66.80
2023-02-24T12:10:51.912Z,66.90
2023-02-24T12:11:51.814Z,66.56
2023-02-24T12:12:51.807Z,66.56
2023-02-24T12:13:51.823Z,66.56
2023-02-24T12:14:56.792Z,65.54
2023-02-24T12:15:51.912Z,65.64
2023-02-24T12:16:51.778Z,65.74
2023-02-24T12:17:51.754Z,66.08
2023-02-24T12:18:51.775Z,65.54
2023-02-24T12:19:51.729Z,65.44
2023-02-24T12:20:51.761Z,65.34
2023-02-24T12:21:51.731Z,65.34
2023-02-24T12:22:51.728Z,65.34
2023-02-24T12:23:51.683Z,65.23
2023-02-24T12:24:51.666Z,65.23
2023-02-24T12:25:56.825Z,65.03
2023-02-24T12:26:51.678Z,65.34
2023-02-24T12:27:52.004Z,65.13
2023-02-24T12:28:51.692Z,65.10
2023-02-24T12:29:51.612Z,65.00
2023-02-24T12:30:51.698Z,63.67
2023-02-24T12:31:51.810Z,63.64
2023-02-24T12:32:51.776Z,63.98
2023-02-24T12:33:51.572Z,63.87
2023-02-24T12:34:51.658Z,63.87
2023-02-24T12:35:51.567Z,64.11
2023-02-24T12:36:56.584Z,64.52
2023-02-24T12:37:51.545Z,64.08
2023-02-24T12:38:51.583Z,64.28
2023-02-24T12:39:51.516Z,63.44
2023-02-24T12:40:51.484Z,62.70
2023-02-24T12:41:51.552Z,61.98
2023-02-24T12:42:51.484Z,62.16
2023-02-24T12:43:51.477Z,61.41
2023-02-24T12:44:51.552Z,61.38
2023-02-24T12:45:51.496Z,60.68
2023-02-24T12:46:51.449Z,60.68
2023-02-24T12:47:57.261Z,61.00
2023-02-24T12:48:51.400Z,60.80
2023-02-24T12:49:51.374Z,61.14
2023-02-24T12:50:51.393Z,61.34
2023-02-24T12:51:51.450Z,61.47
2023-02-24T12:52:51.342Z,61.47
2023-02-24T12:53:51.334Z,61.16
2023-02-24T12:54:51.333Z,61.75
2023-02-24T12:55:51.331Z,61.11
2023-02-24T12:56:51.298Z,60.16
2023-02-24T12:57:51.354Z,60.37
2023-02-24T12:58:56.379Z,59.96
2023-02-24T12:59:51.288Z,59.32
2023-02-24T13:00:51.287Z,59.73
2023-02-24T13:01:51.401Z,59.39
2023-02-24T13:02:51.306Z,59.09
2023-02-24T13:03:51.237Z,57.74
2023-02-24T13:04:51.214Z,57.71
2023-02-24T13:05:51.196Z,57.64
2023-02-24T13:06:51.267Z,57.08
2023-02-24T13:07:51.225Z,55.91
2023-02-24T13:08:51.175Z,54.71
2023-02-24T13:09:56.222Z,52.94
2023-02-24T13:10:51.179Z,51.96
2023-02-24T13:11:51.140Z,50.52
2023-02-24T13:12:51.183Z,49.08
2023-02-24T13:13:51.118Z,50.44
2023-02-24T13:14:51.102Z,51.93
2023-02-24T13:15:51.162Z,53.09
2023-02-24T13:16:51.198Z,53.93
2023-02-24T13:17:51.131Z,55.07
2023-02-24T13:18:51.127Z,54.69
2023-02-24T13:19:51.083Z,54.79
2023-02-24T13:20:56.049Z,54.92
2023-02-24T13:21:51.030Z,55.25
2023-02-24T13:22:51.107Z,56.29
2023-02-24T13:23:51.008Z,56.93
2023-02-24T13:24:51.020Z,57.16
2023-02-24T13:25:51.059Z,57.77
2023-02-24T13:26:50.997Z,58.07
2023-02-24T13:27:51.011Z,57.97
2023-02-24T13:28:51.036Z,57.77
2023-02-24T13:29:50.981Z,58.28
2023-02-24T13:30:51.005Z,57.77
2023-02-24T13:31:55.978Z,57.16
2023-02-24T13:32:51.083Z,56.95
2023-02-24T13:33:50.908Z,57.03
2023-02-24T13:34:50.864Z,56.93
2023-02-24T13:35:51.009Z,56.62
2023-02-24T13:36:50.847Z,56.82
2023-02-24T13:37:50.833Z,56.62
2023-02-24T13:38:50.916Z,56.82
2023-02-24T13:39:50.843Z,56.95
2023-02-24T13:40:51.101Z,57.06
2023-02-24T13:41:51.120Z,57.16
2023-02-24T13:42:55.821Z,57.06
2023-02-24T13:43:50.835Z,57.03
2023-02-24T13:44:50.768Z,57.26
2023-02-24T13:45:50.848Z,57.29
2023-02-24T13:46:50.731Z,57.72
2023-02-24T13:47:50.777Z,57.85
2023-02-24T13:48:50.720Z,58.08
2023-02-24T13:49:50.779Z,59.41
2023-02-24T13:50:50.717Z,59.28
2023-02-24T13:51:50.708Z,59.38
2023-02-24T13:52:50.678Z,59.28
2023-02-24T13:53:57.528Z,59.05
2023-02-24T13:54:50.690Z,58.84
2023-02-24T13:55:50.668Z,58.84
2023-02-24T13:56:50.624Z,58.44
2023-02-24T13:57:50.679Z,58.84
2023-02-24T13:58:50.683Z,59.58
2023-02-24T13:59:50.677Z,58.94
2023-02-24T14:00:50.701Z,58.03
2023-02-24T14:01:50.712Z,57.52
2023-02-24T14:02:50.591Z,58.13
2023-02-24T14:03:50.621Z,57.90
2023-02-24T14:04:55.605Z,57.92
2023-02-24T14:05:50.580Z,58.03
2023-02-24T14:06:50.585Z,58.03
2023-02-24T14:07:50.542Z,57.82
2023-02-24T14:08:50.519Z,57.82
2023-02-24T14:09:50.684Z,57.72
2023-02-24T14:10:50.488Z,56.90
2023-02-24T14:11:50.495Z,56.09
2023-02-24T14:12:50.527Z,56.90
2023-02-24T14:13:50.458Z,55.48
2023-02-24T14:14:50.458Z,55.38
2023-02-24T14:15:55.515Z,56.32
2023-02-24T14:16:50.410Z,56.50
2023-02-24T14:17:50.406Z,56.09
2023-02-24T14:18:50.391Z,55.89
2023-02-24T14:19:50.472Z,55.18
2023-02-24T14:20:50.402Z,55.99
2023-02-24T14:21:50.370Z,54.03
2023-02-24T14:22:50.333Z,53.83
2023-02-24T14:23:50.376Z,53.11
2023-02-24T14:24:50.363Z,52.91
2023-02-24T14:25:50.355Z,53.32
2023-02-24T14:26:55.317Z,52.30
2023-02-24T14:27:50.308Z,53.22
2023-02-24T14:28:50.285Z,52.71
2023-02-24T14:29:50.304Z,53.02
2023-02-24T14:30:50.598Z,52.81
2023-02-24T14:31:50.407Z,53.22
2023-02-24T14:32:50.259Z,53.22
2023-02-24T14:33:50.292Z,53.42
2023-02-24T14:34:50.204Z,53.32
2023-02-24T14:35:50.270Z,53.85
2023-02-24T14:36:50.187Z,52.94
2023-02-24T14:37:55.204Z,54.18
2023-02-24T14:38:50.167Z,53.98
2023-02-24T14:39:50.229Z,53.98
2023-02-24T14:40:50.187Z,54.49
2023-02-24T14:41:50.169Z,54.69
2023-02-24T14:42:50.128Z,54.59
2023-02-24T14:43:50.120Z,54.90
2023-02-24T14:44:50.162Z,54.87
2023-02-24T14:45:50.183Z,54.05
2023-02-24T14:46:50.248Z,53.27
2023-02-24T14:47:50.060Z,53.37
2023-02-24T14:48:55.081Z,52.55
2023-02-24T14:49:50.035Z,53.27
2023-02-24T14:50:50.176Z,52.96
2023-02-24T14:51:50.062Z,53.06
2023-02-24T14:52:50.192Z,53.27
2023-02-24T14:53:50.135Z,52.76
2023-02-24T14:54:50.017Z,53.37
2023-02-24T14:55:50.103Z,53.37
2023-02-24T14:56:50.292Z,53.37
2023-02-24T14:57:49.980Z,53.37
2023-02-24T14:58:49.959Z,53.57
2023-02-24T14:59:54.958Z,53.50
2023-02-24T15:00:49.952Z,53.50
2023-02-24T15:01:50.097Z,53.59
2023-02-24T15:02:49.996Z,54.11
2023-02-24T15:03:49.928Z,53.80
2023-02-24T15:04:49.878Z,54.41
2023-02-24T15:05:49.886Z,53.90
2023-02-24T15:06:49.926Z,54.00
2023-02-24T15:07:51.763Z,53.90
2023-02-24T15:08:49.857Z,54.41
2023-02-24T15:09:49.852Z,53.70
2023-02-24T15:10:55.411Z,54.11
2023-02-24T15:11:51.326Z,53.80
2023-02-24T15:12:49.818Z,53.80
2023-02-24T15:13:49.864Z,54.00
2023-02-24T15:14:49.755Z,53.70
2023-02-24T15:15:49.784Z,53.09
2023-02-24T15:16:49.825Z,53.70
2023-02-24T15:17:49.721Z,53.31
2023-02-24T15:18:49.700Z,53.31
2023-02-24T15:19:49.764Z,53.52
2023-02-24T15:20:49.676Z,53.11
2023-02-24T15:21:54.722Z,53.31
2023-02-24T15:22:49.669Z,53.42
2023-02-24T15:23:49.667Z,53.92
2023-02-24T15:24:49.660Z,53.11
2023-02-24T15:25:49.676Z,53.11
2023-02-24T15:26:49.651Z,53.31
2023-02-24T15:27:49.614Z,53.72
2023-02-24T15:28:49.664Z,53.83
2023-02-24T15:29:50.039Z,53.42
2023-02-24T15:30:49.659Z,53.62
2023-02-24T15:31:49.726Z,53.62
2023-02-24T15:32:54.648Z,53.64
2023-02-24T15:33:49.524Z,53.14
2023-02-24T15:34:49.513Z,54.16
2023-02-24T15:35:49.501Z,53.85
2023-02-24T15:36:49.521Z,53.62
2023-02-24T15:37:49.488Z,53.85
2023-02-24T15:38:49.500Z,54.16
2023-02-24T15:39:49.559Z,53.42
2023-02-24T15:40:49.445Z,53.75
2023-02-24T15:41:49.437Z,53.55
2023-02-24T15:42:49.443Z,53.14
2023-02-24T15:43:54.430Z,53.55
2023-02-24T15:44:49.401Z,53.55
2023-02-24T15:45:49.417Z,53.96
2023-02-24T15:46:49.544Z,53.77
2023-02-24T15:47:49.376Z,53.44
2023-02-24T15:48:49.364Z,53.88
2023-02-24T15:49:49.340Z,53.16
2023-02-24T15:50:49.338Z,53.14
2023-02-24T15:51:49.322Z,53.14
2023-02-24T15:52:49.322Z,53.27
2023-02-24T15:53:49.324Z,54.28
2023-02-24T15:54:54.313Z,53.88
2023-02-24T15:55:49.280Z,53.27
2023-02-24T15:56:49.266Z,53.19
2023-02-24T15:57:49.278Z,53.27
2023-02-24T15:58:49.242Z,53.47
2023-02-24T15:59:49.231Z,53.67
2023-02-24T16:00:49.256Z,52.96
2023-02-24T16:01:49.233Z,53.67
2023-02-24T16:02:49.217Z,53.88
2023-02-24T16:03:49.229Z,53.16
2023-02-24T16:04:49.213Z,53.47
2023-02-24T16:05:54.188Z,54.00
2023-02-24T16:06:49.157Z,54.49
2023-02-24T16:07:49.152Z,54.28
2023-02-24T16:08:49.186Z,53.80
2023-02-24T16:09:49.127Z,54.00
2023-02-24T16:10:49.110Z,54.31
2023-02-24T16:11:49.097Z,54.08
2023-02-24T16:12:49.099Z,54.31
2023-02-24T16:13:49.082Z,54.61
2023-02-24T16:14:49.138Z,54.31
2023-02-24T16:15:49.054Z,53.08
2023-02-24T16:16:54.145Z,53.80
2023-02-24T16:17:49.037Z,54.41
2023-02-24T16:18:49.061Z,54.51
2023-02-24T16:19:49.027Z,53.70
2023-02-24T16:20:49.023Z,53.90
2023-02-24T16:21:48.989Z,54.11
2023-02-24T16:22:48.986Z,54.21
2023-02-24T16:23:48.998Z,54.41
2023-02-24T16:24:48.952Z,53.90
2023-02-24T16:25:48.944Z,54.13
2023-02-24T16:26:49.065Z,54.74
2023-02-24T16:27:53.989Z,54.33
2023-02-24T16:28:48.911Z,54.23
2023-02-24T16:29:48.892Z,54.33
2023-02-24T16:30:49.053Z,54.23
2023-02-24T16:31:49.190Z,53.92
2023-02-24T16:32:49.110Z,54.03
2023-02-24T16:33:54.965Z,54.74
2023-02-24T16:34:49.873Z,54.54
2023-02-24T16:35:48.834Z,54.23
2023-02-24T16:36:48.830Z,54.13
2023-02-24T16:37:48.821Z,53.92
2023-02-24T16:38:53.842Z,55.15
2023-02-24T16:39:48.795Z,54.03
2023-02-24T16:40:48.778Z,54.03
2023-02-24T16:41:48.771Z,54.57
2023-02-24T16:42:48.762Z,53.95
2023-02-24T16:43:48.759Z,54.44
2023-02-24T16:44:48.732Z,54.26
2023-02-24T16:45:48.771Z,53.23
2023-02-24T16:46:48.729Z,53.44
2023-02-24T16:47:48.702Z,53.23
2023-02-24T16:48:48.724Z,54.77
2023-02-24T16:49:53.693Z,53.85
2023-02-24T16:50:48.670Z,54.36
2023-02-24T16:51:48.677Z,54.67
2023-02-24T16:52:48.658Z,54.05
2023-02-24T16:53:48.642Z,54.16
2023-02-24T16:54:48.624Z,53.95
2023-02-24T16:55:48.620Z,53.54
2023-02-24T16:56:48.666Z,54.18
2023-02-24T16:57:48.601Z,53.98
2023-02-24T16:58:48.628Z,54.28
2023-02-24T16:59:48.563Z,54.28
2023-02-24T17:00:53.631Z,54.28
2023-02-24T17:01:48.568Z,53.98
2023-02-24T17:02:48.537Z,54.59
2023-02-24T17:03:48.599Z,53.88
2023-02-24T17:04:48.563Z,54.59
2023-02-24T17:05:48.508Z,55.10
2023-02-24T17:06:48.490Z,55.21
2023-02-24T17:07:48.494Z,55.21
2023-02-24T17:08:48.480Z,55.51
2023-02-24T17:09:48.492Z,55.02
2023-02-24T17:10:48.443Z,55.30
2023-02-24T17:11:53.451Z,55.92
2023-02-24T17:12:48.425Z,55.10
2023-02-24T17:13:48.428Z,55.10